sensor_id;sensor_type;location;lat;lon;timestamp;temperature;humidity
25250;DHT22;13201;51.148;13.738;2023-04-08T00:01:09;6.10;99.90
25250;DHT22;13201;51.148;13.738;2023-04-08T00:03:36;6.10;99.90
25250;DHT22;13201;51.148;13.738;2023-04-08T00:06:02;6.20;99.90
25250;DHT22;13201;51.148;13.738;2023-04-08T00:08:29;6.00;99.90
25250;DHT22;13201;51.148;13.738;2023-04-08T00:10:55;6.10;99.90
25250;DHT22;13201;51.148;13.738;2023-04-08T00:13:20;6.20;99.90
25250;DHT22;13201;51.148;13.738;2023-04-08T00:15:46;6.00;99.90
25250;DHT22;13201;51.148;13.738;2023-04-08T00:18:13;6.00;99.90
25250;DHT22;13201;51.148;13.738;2023-04-08T00:20:40;6.10;99.90
25250;DHT22;13201;51.148;13.738;2023-04-08T00:23:06;6.00;99.90
25250;DHT22;13201;51.148;13.738;2023-04-08T00:25:32;6.00;99.90
25250;DHT22;13201;51.148;13.738;2023-04-08T00:27:57;5.90;99.90
25250;DHT22;13201;51.148;13.738;2023-04-08T00:30:23;5.90;99.90
25250;DHT22;13201;51.148;13.738;2023-04-08T00:32:49;5.90;99.90
25250;DHT22;13201;51.148;13.738;2023-04-08T00:35:15;6.20;99.90
25250;DHT22;13201;51.148;13.738;2023-04-08T00:37:40;6.10;99.90
25250;DHT22;13201;51.148;13.738;2023-04-08T00:40:07;6.10;99.90
25250;DHT22;13201;51.148;13.738;2023-04-08T00:42:32;6.10;99.90
25250;DHT22;13201;51.148;13.738;2023-04-08T00:44:58;6.20;99.90
25250;DHT22;13201;51.148;13.738;2023-04-08T00:47:24;6.20;99.90
25250;DHT22;13201;51.148;13.738;2023-04-08T00:49:50;6.10;99.90
25250;DHT22;13201;51.148;13.738;2023-04-08T00:52:16;6.10;99.90
25250;DHT22;13201;51.148;13.738;2023-04-08T00:54:42;6.20;99.90
25250;DHT22;13201;51.148;13.738;2023-04-08T00:57:08;6.10;99.90
25250;DHT22;13201;51.148;13.738;2023-04-08T00:59:33;6.20;99.90
25250;DHT22;13201;51.148;13.738;2023-04-08T01:04:45;6.20;99.90
25250;DHT22;13201;51.148;13.738;2023-04-08T01:30:44;5.20;99.90
25250;DHT22;13201;51.148;13.738;2023-04-08T01:33:12;5.20;99.90
25250;DHT22;13201;51.148;13.738;2023-04-08T01:35:38;5.30;99.90
25250;DHT22;13201;51.148;13.738;2023-04-08T01:38:10;5.40;99.90
25250;DHT22;13201;51.148;13.738;2023-04-08T01:40:39;5.50;99.90
25250;DHT22;13201;51.148;13.738;2023-04-08T01:43:07;5.60;99.90
25250;DHT22;13201;51.148;13.738;2023-04-08T01:45:34;5.70;99.90
25250;DHT22;13201;51.148;13.738;2023-04-08T01:48:00;5.80;99.90
25250;DHT22;13201;51.148;13.738;2023-04-08T01:50:27;5.80;99.90
25250;DHT22;13201;51.148;13.738;2023-04-08T01:52:55;5.90;99.90
25250;DHT22;13201;51.148;13.738;2023-04-08T01:55:22;5.90;99.90
25250;DHT22;13201;51.148;13.738;2023-04-08T01:57:50;5.80;99.90
25250;DHT22;13201;51.148;13.738;2023-04-08T02:00:20;5.80;99.90
25250;DHT22;13201;51.148;13.738;2023-04-08T02:02:48;5.90;99.90
25250;DHT22;13201;51.148;13.738;2023-04-08T02:05:14;5.90;99.90
25250;DHT22;13201;51.148;13.738;2023-04-08T02:07:40;6.10;99.90
25250;DHT22;13201;51.148;13.738;2023-04-08T02:10:06;6.00;99.90
25250;DHT22;13201;51.148;13.738;2023-04-08T02:12:32;6.00;99.90
25250;DHT22;13201;51.148;13.738;2023-04-08T02:14:58;6.10;99.90
25250;DHT22;13201;51.148;13.738;2023-04-08T02:17:35;6.20;99.90
25250;DHT22;13201;51.148;13.738;2023-04-08T02:20:07;6.20;99.90
25250;DHT22;13201;51.148;13.738;2023-04-08T02:25:10;6.20;99.90
25250;DHT22;13201;51.148;13.738;2023-04-08T02:27:38;6.30;99.90
25250;DHT22;13201;51.148;13.738;2023-04-08T02:30:06;6.20;99.90
25250;DHT22;13201;51.148;13.738;2023-04-08T02:32:33;6.30;99.90
25250;DHT22;13201;51.148;13.738;2023-04-08T02:35:01;6.30;99.90
25250;DHT22;13201;51.148;13.738;2023-04-08T02:37:29;6.20;99.90
25250;DHT22;13201;51.148;13.738;2023-04-08T02:39:55;6.20;99.90
25250;DHT22;13201;51.148;13.738;2023-04-08T02:42:21;6.30;99.90
25250;DHT22;13201;51.148;13.738;2023-04-08T02:44:47;6.30;99.90
25250;DHT22;13201;51.148;13.738;2023-04-08T02:47:13;6.30;99.90
25250;DHT22;13201;51.148;13.738;2023-04-08T02:49:38;6.30;99.90
25250;DHT22;13201;51.148;13.738;2023-04-08T02:52:04;6.30;99.90
25250;DHT22;13201;51.148;13.738;2023-04-08T02:54:30;6.30;99.90
25250;DHT22;13201;51.148;13.738;2023-04-08T02:56:56;6.30;99.90
25250;DHT22;13201;51.148;13.738;2023-04-08T02:59:22;6.30;99.90
25250;DHT22;13201;51.148;13.738;2023-04-08T03:01:48;6.40;99.90
25250;DHT22;13201;51.148;13.738;2023-04-08T03:04:13;6.30;99.90
25250;DHT22;13201;51.148;13.738;2023-04-08T03:06:39;6.30;99.90
25250;DHT22;13201;51.148;13.738;2023-04-08T03:09:05;6.20;99.90
25250;DHT22;13201;51.148;13.738;2023-04-08T03:11:31;6.20;99.90
25250;DHT22;13201;51.148;13.738;2023-04-08T03:13:57;6.30;99.90
25250;DHT22;13201;51.148;13.738;2023-04-08T03:16:23;6.40;99.90
25250;DHT22;13201;51.148;13.738;2023-04-08T03:18:49;6.40;99.90
25250;DHT22;13201;51.148;13.738;2023-04-08T03:21:18;6.40;99.90
25250;DHT22;13201;51.148;13.738;2023-04-08T03:23:44;6.60;99.90
25250;DHT22;13201;51.148;13.738;2023-04-08T03:26:10;6.40;99.90
25250;DHT22;13201;51.148;13.738;2023-04-08T03:28:36;6.50;99.90
25250;DHT22;13201;51.148;13.738;2023-04-08T03:31:04;6.30;99.90
25250;DHT22;13201;51.148;13.738;2023-04-08T03:33:30;6.30;99.90
25250;DHT22;13201;51.148;13.738;2023-04-08T03:35:56;6.40;99.90
25250;DHT22;13201;51.148;13.738;2023-04-08T03:38:22;6.40;99.90
25250;DHT22;13201;51.148;13.738;2023-04-08T03:40:47;6.50;99.90
25250;DHT22;13201;51.148;13.738;2023-04-08T03:43:13;6.30;99.90
25250;DHT22;13201;51.148;13.738;2023-04-08T03:45:39;6.40;99.90
25250;DHT22;13201;51.148;13.738;2023-04-08T03:48:05;6.40;99.90
25250;DHT22;13201;51.148;13.738;2023-04-08T03:50:31;6.30;99.90
25250;DHT22;13201;51.148;13.738;2023-04-08T03:52:57;6.40;99.90
25250;DHT22;13201;51.148;13.738;2023-04-08T03:55:22;6.30;99.90
25250;DHT22;13201;51.148;13.738;2023-04-08T03:57:48;6.40;99.90
25250;DHT22;13201;51.148;13.738;2023-04-08T04:00:14;6.30;99.90
25250;DHT22;13201;51.148;13.738;2023-04-08T04:02:40;6.40;99.90
25250;DHT22;13201;51.148;13.738;2023-04-08T04:05:06;6.30;99.90
25250;DHT22;13201;51.148;13.738;2023-04-08T04:07:32;6.30;99.90
25250;DHT22;13201;51.148;13.738;2023-04-08T04:09:57;6.30;99.90
25250;DHT22;13201;51.148;13.738;2023-04-08T04:12:23;6.30;99.90
25250;DHT22;13201;51.148;13.738;2023-04-08T04:14:49;6.30;99.90
25250;DHT22;13201;51.148;13.738;2023-04-08T04:17:14;6.20;99.90
25250;DHT22;13201;51.148;13.738;2023-04-08T04:19:40;6.30;99.90
25250;DHT22;13201;51.148;13.738;2023-04-08T04:22:06;6.30;99.90
25250;DHT22;13201;51.148;13.738;2023-04-08T04:24:32;6.30;99.90
25250;DHT22;13201;51.148;13.738;2023-04-08T04:26:58;6.30;99.90
25250;DHT22;13201;51.148;13.738;2023-04-08T04:29:23;6.30;99.90
25250;DHT22;13201;51.148;13.738;2023-04-08T04:31:49;6.40;99.90
25250;DHT22;13201;51.148;13.738;2023-04-08T04:34:15;6.40;99.90
25250;DHT22;13201;51.148;13.738;2023-04-08T04:36:40;6.40;99.90
25250;DHT22;13201;51.148;13.738;2023-04-08T04:39:06;6.50;99.90
25250;DHT22;13201;51.148;13.738;2023-04-08T04:41:32;6.50;99.90
25250;DHT22;13201;51.148;13.738;2023-04-08T04:43:59;6.20;99.90
25250;DHT22;13201;51.148;13.738;2023-04-08T04:46:25;6.30;99.90
25250;DHT22;13201;51.148;13.738;2023-04-08T04:48:51;6.40;99.90
25250;DHT22;13201;51.148;13.738;2023-04-08T04:51:17;6.40;99.90
25250;DHT22;13201;51.148;13.738;2023-04-08T04:53:43;6.40;99.90
25250;DHT22;13201;51.148;13.738;2023-04-08T04:56:08;6.50;99.90
25250;DHT22;13201;51.148;13.738;2023-04-08T04:58:34;6.50;99.90
25250;DHT22;13201;51.148;13.738;2023-04-08T05:01:00;6.50;99.90
25250;DHT22;13201;51.148;13.738;2023-04-08T05:03:26;6.60;99.90
25250;DHT22;13201;51.148;13.738;2023-04-08T05:05:52;6.60;99.90
25250;DHT22;13201;51.148;13.738;2023-04-08T05:08:18;6.60;99.90
25250;DHT22;13201;51.148;13.738;2023-04-08T05:10:44;6.60;99.90
25250;DHT22;13201;51.148;13.738;2023-04-08T05:13:10;6.60;99.90
25250;DHT22;13201;51.148;13.738;2023-04-08T05:15:36;6.60;99.90
25250;DHT22;13201;51.148;13.738;2023-04-08T05:18:01;6.60;99.90
25250;DHT22;13201;51.148;13.738;2023-04-08T05:20:27;6.60;99.90
25250;DHT22;13201;51.148;13.738;2023-04-08T05:22:53;6.60;99.90
25250;DHT22;13201;51.148;13.738;2023-04-08T05:25:18;6.50;99.90
25250;DHT22;13201;51.148;13.738;2023-04-08T05:27:44;6.50;99.90
25250;DHT22;13201;51.148;13.738;2023-04-08T05:30:11;6.60;99.90
25250;DHT22;13201;51.148;13.738;2023-04-08T05:32:37;6.60;99.90
25250;DHT22;13201;51.148;13.738;2023-04-08T05:35:03;6.60;99.90
25250;DHT22;13201;51.148;13.738;2023-04-08T05:37:29;6.60;99.90
25250;DHT22;13201;51.148;13.738;2023-04-08T05:39:54;6.70;99.90
25250;DHT22;13201;51.148;13.738;2023-04-08T05:42:20;6.70;99.90
25250;DHT22;13201;51.148;13.738;2023-04-08T05:44:46;6.80;99.90
25250;DHT22;13201;51.148;13.738;2023-04-08T05:47:12;6.80;99.90
25250;DHT22;13201;51.148;13.738;2023-04-08T05:49:39;6.70;99.90
25250;DHT22;13201;51.148;13.738;2023-04-08T05:52:05;6.80;99.90
25250;DHT22;13201;51.148;13.738;2023-04-08T05:54:31;6.70;99.90
25250;DHT22;13201;51.148;13.738;2023-04-08T05:56:57;6.80;99.90
25250;DHT22;13201;51.148;13.738;2023-04-08T05:59:23;6.80;99.90
25250;DHT22;13201;51.148;13.738;2023-04-08T06:01:48;6.80;99.90
25250;DHT22;13201;51.148;13.738;2023-04-08T06:04:14;6.70;99.90
25250;DHT22;13201;51.148;13.738;2023-04-08T06:06:42;6.90;99.90
25250;DHT22;13201;51.148;13.738;2023-04-08T06:09:07;6.90;99.90
25250;DHT22;13201;51.148;13.738;2023-04-08T06:11:34;6.90;99.90
25250;DHT22;13201;51.148;13.738;2023-04-08T06:14:00;6.90;99.90
25250;DHT22;13201;51.148;13.738;2023-04-08T06:16:26;6.90;99.90
25250;DHT22;13201;51.148;13.738;2023-04-08T06:18:51;6.90;99.90
25250;DHT22;13201;51.148;13.738;2023-04-08T06:21:17;6.90;99.90
25250;DHT22;13201;51.148;13.738;2023-04-08T06:23:43;7.00;99.90
25250;DHT22;13201;51.148;13.738;2023-04-08T06:26:08;7.00;99.90
25250;DHT22;13201;51.148;13.738;2023-04-08T06:28:34;7.10;99.90
25250;DHT22;13201;51.148;13.738;2023-04-08T06:31:00;7.00;99.90
25250;DHT22;13201;51.148;13.738;2023-04-08T06:33:26;7.00;99.90
25250;DHT22;13201;51.148;13.738;2023-04-08T06:36:00;7.20;99.90
25250;DHT22;13201;51.148;13.738;2023-04-08T06:38:26;7.10;99.90
25250;DHT22;13201;51.148;13.738;2023-04-08T06:40:51;7.30;99.90
25250;DHT22;13201;51.148;13.738;2023-04-08T06:43:17;7.30;99.90
25250;DHT22;13201;51.148;13.738;2023-04-08T06:45:42;7.30;99.90
25250;DHT22;13201;51.148;13.738;2023-04-08T06:48:08;7.30;99.90
25250;DHT22;13201;51.148;13.738;2023-04-08T06:50:34;7.20;99.90
25250;DHT22;13201;51.148;13.738;2023-04-08T06:53:00;7.30;99.90
25250;DHT22;13201;51.148;13.738;2023-04-08T06:55:25;7.40;99.90
25250;DHT22;13201;51.148;13.738;2023-04-08T06:57:51;7.50;99.90
25250;DHT22;13201;51.148;13.738;2023-04-08T07:00:17;7.40;99.90
25250;DHT22;13201;51.148;13.738;2023-04-08T07:02:42;7.40;99.90
25250;DHT22;13201;51.148;13.738;2023-04-08T07:05:09;7.50;99.90
25250;DHT22;13201;51.148;13.738;2023-04-08T07:07:35;7.40;99.90
25250;DHT22;13201;51.148;13.738;2023-04-08T07:10:00;7.50;99.90
25250;DHT22;13201;51.148;13.738;2023-04-08T07:12:26;7.50;99.90
25250;DHT22;13201;51.148;13.738;2023-04-08T07:14:52;7.60;99.90
25250;DHT22;13201;51.148;13.738;2023-04-08T07:17:17;7.60;99.90
25250;DHT22;13201;51.148;13.738;2023-04-08T07:19:44;7.60;99.90
25250;DHT22;13201;51.148;13.738;2023-04-08T07:22:09;7.50;99.90
25250;DHT22;13201;51.148;13.738;2023-04-08T07:24:35;7.60;99.90
25250;DHT22;13201;51.148;13.738;2023-04-08T07:27:00;7.50;99.90
25250;DHT22;13201;51.148;13.738;2023-04-08T07:29:26;7.60;99.90
25250;DHT22;13201;51.148;13.738;2023-04-08T07:31:52;7.60;99.90
25250;DHT22;13201;51.148;13.738;2023-04-08T07:34:18;7.70;99.90
25250;DHT22;13201;51.148;13.738;2023-04-08T07:36:44;7.80;99.90
25250;DHT22;13201;51.148;13.738;2023-04-08T07:39:10;7.70;99.90
25250;DHT22;13201;51.148;13.738;2023-04-08T07:41:35;7.90;99.90
25250;DHT22;13201;51.148;13.738;2023-04-08T07:44:01;8.10;99.90
25250;DHT22;13201;51.148;13.738;2023-04-08T07:46:27;8.10;99.90
25250;DHT22;13201;51.148;13.738;2023-04-08T07:48:52;8.10;99.90
25250;DHT22;13201;51.148;13.738;2023-04-08T07:51:18;8.10;99.90
25250;DHT22;13201;51.148;13.738;2023-04-08T07:53:44;8.10;99.90
25250;DHT22;13201;51.148;13.738;2023-04-08T07:56:14;8.20;99.90
25250;DHT22;13201;51.148;13.738;2023-04-08T07:58:40;8.00;99.90
25250;DHT22;13201;51.148;13.738;2023-04-08T08:01:19;8.20;99.90
25250;DHT22;13201;51.148;13.738;2023-04-08T08:03:45;8.20;99.90
25250;DHT22;13201;51.148;13.738;2023-04-08T08:06:12;8.30;99.90
25250;DHT22;13201;51.148;13.738;2023-04-08T08:08:37;8.30;99.90
25250;DHT22;13201;51.148;13.738;2023-04-08T08:11:03;8.50;99.90
25250;DHT22;13201;51.148;13.738;2023-04-08T08:13:29;8.50;99.90
25250;DHT22;13201;51.148;13.738;2023-04-08T08:15:54;8.60;99.90
25250;DHT22;13201;51.148;13.738;2023-04-08T08:18:20;8.70;99.90
25250;DHT22;13201;51.148;13.738;2023-04-08T08:20:46;8.80;99.90
25250;DHT22;13201;51.148;13.738;2023-04-08T08:23:11;9.00;99.90
25250;DHT22;13201;51.148;13.738;2023-04-08T08:25:37;9.10;99.90
25250;DHT22;13201;51.148;13.738;2023-04-08T08:28:03;9.30;99.90
25250;DHT22;13201;51.148;13.738;2023-04-08T08:30:28;9.30;99.90
25250;DHT22;13201;51.148;13.738;2023-04-08T08:32:54;9.30;99.90
25250;DHT22;13201;51.148;13.738;2023-04-08T08:35:23;9.30;99.90
25250;DHT22;13201;51.148;13.738;2023-04-08T08:37:49;9.40;99.90
25250;DHT22;13201;51.148;13.738;2023-04-08T08:40:15;9.30;99.90
25250;DHT22;13201;51.148;13.738;2023-04-08T08:42:48;9.40;99.90
25250;DHT22;13201;51.148;13.738;2023-04-08T08:45:14;9.40;99.90
25250;DHT22;13201;51.148;13.738;2023-04-08T08:47:40;9.30;99.90
25250;DHT22;13201;51.148;13.738;2023-04-08T08:50:06;9.30;99.90
25250;DHT22;13201;51.148;13.738;2023-04-08T08:52:32;9.40;99.90
25250;DHT22;13201;51.148;13.738;2023-04-08T08:54:58;9.40;99.90
25250;DHT22;13201;51.148;13.738;2023-04-08T08:57:24;9.30;99.90
25250;DHT22;13201;51.148;13.738;2023-04-08T08:59:50;9.40;99.90
25250;DHT22;13201;51.148;13.738;2023-04-08T09:02:30;9.40;99.90
25250;DHT22;13201;51.148;13.738;2023-04-08T09:05:01;9.50;99.90
25250;DHT22;13201;51.148;13.738;2023-04-08T09:07:28;9.60;99.90
25250;DHT22;13201;51.148;13.738;2023-04-08T09:09:55;9.50;99.90
25250;DHT22;13201;51.148;13.738;2023-04-08T09:12:21;9.50;99.90
25250;DHT22;13201;51.148;13.738;2023-04-08T09:14:47;9.40;99.90
25250;DHT22;13201;51.148;13.738;2023-04-08T09:17:13;9.40;99.90
25250;DHT22;13201;51.148;13.738;2023-04-08T09:19:39;9.30;99.90
25250;DHT22;13201;51.148;13.738;2023-04-08T09:22:25;9.30;99.90
25250;DHT22;13201;51.148;13.738;2023-04-08T09:24:51;9.50;99.90
25250;DHT22;13201;51.148;13.738;2023-04-08T09:27:33;9.50;99.90
25250;DHT22;13201;51.148;13.738;2023-04-08T09:30:15;9.60;99.90
25250;DHT22;13201;51.148;13.738;2023-04-08T09:32:51;9.40;99.90
25250;DHT22;13201;51.148;13.738;2023-04-08T09:35:18;9.50;99.90
25250;DHT22;13201;51.148;13.738;2023-04-08T09:37:44;9.70;99.90
25250;DHT22;13201;51.148;13.738;2023-04-08T09:40:10;9.60;99.90
25250;DHT22;13201;51.148;13.738;2023-04-08T09:42:39;9.60;99.90
25250;DHT22;13201;51.148;13.738;2023-04-08T09:45:06;9.50;99.90
25250;DHT22;13201;51.148;13.738;2023-04-08T09:47:41;9.60;99.90
25250;DHT22;13201;51.148;13.738;2023-04-08T09:50:09;9.70;99.90
25250;DHT22;13201;51.148;13.738;2023-04-08T09:52:43;9.50;99.90
25250;DHT22;13201;51.148;13.738;2023-04-08T09:55:15;9.60;99.90
25250;DHT22;13201;51.148;13.738;2023-04-08T09:58:04;9.60;99.90
25250;DHT22;13201;51.148;13.738;2023-04-08T10:00:36;9.70;99.90
25250;DHT22;13201;51.148;13.738;2023-04-08T10:05:54;9.80;99.90
25250;DHT22;13201;51.148;13.738;2023-04-08T10:08:25;9.90;99.90
25250;DHT22;13201;51.148;13.738;2023-04-08T10:10:51;9.80;99.90
25250;DHT22;13201;51.148;13.738;2023-04-08T10:13:18;9.80;99.90
25250;DHT22;13201;51.148;13.738;2023-04-08T10:15:44;10.10;99.90
25250;DHT22;13201;51.148;13.738;2023-04-08T10:20:47;10.30;99.90
25250;DHT22;13201;51.148;13.738;2023-04-08T10:23:15;10.60;99.90
25250;DHT22;13201;51.148;13.738;2023-04-08T10:25:48;10.70;99.90
25250;DHT22;13201;51.148;13.738;2023-04-08T10:30:46;10.50;99.90
25250;DHT22;13201;51.148;13.738;2023-04-08T10:33:30;10.60;99.90
25250;DHT22;13201;51.148;13.738;2023-04-08T10:36:07;10.40;99.90
25250;DHT22;13201;51.148;13.738;2023-04-08T10:38:37;10.30;99.90
25250;DHT22;13201;51.148;13.738;2023-04-08T10:41:03;10.20;99.90
25250;DHT22;13201;51.148;13.738;2023-04-08T10:43:33;10.20;99.90
25250;DHT22;13201;51.148;13.738;2023-04-08T10:45:59;10.10;99.90
25250;DHT22;13201;51.148;13.738;2023-04-08T10:48:25;10.20;99.90
25250;DHT22;13201;51.148;13.738;2023-04-08T10:53:34;10.30;99.90
25250;DHT22;13201;51.148;13.738;2023-04-08T10:56:11;10.30;99.90
25250;DHT22;13201;51.148;13.738;2023-04-08T10:58:53;10.10;99.90
25250;DHT22;13201;51.148;13.738;2023-04-08T11:01:21;10.10;99.90
25250;DHT22;13201;51.148;13.738;2023-04-08T11:03:47;10.10;99.90
25250;DHT22;13201;51.148;13.738;2023-04-08T11:06:13;10.00;99.90
25250;DHT22;13201;51.148;13.738;2023-04-08T11:08:39;10.00;99.90
25250;DHT22;13201;51.148;13.738;2023-04-08T11:11:06;10.10;99.90
25250;DHT22;13201;51.148;13.738;2023-04-08T11:13:41;9.90;99.90
25250;DHT22;13201;51.148;13.738;2023-04-08T11:16:07;10.10;99.90
25250;DHT22;13201;51.148;13.738;2023-04-08T11:18:34;10.30;99.90
25250;DHT22;13201;51.148;13.738;2023-04-08T11:21:00;10.30;99.90
25250;DHT22;13201;51.148;13.738;2023-04-08T11:23:26;10.30;99.90
25250;DHT22;13201;51.148;13.738;2023-04-08T11:25:52;10.20;99.90
25250;DHT22;13201;51.148;13.738;2023-04-08T11:28:19;10.40;99.90
25250;DHT22;13201;51.148;13.738;2023-04-08T11:30:45;10.20;99.90
25250;DHT22;13201;51.148;13.738;2023-04-08T11:33:13;10.20;99.90
25250;DHT22;13201;51.148;13.738;2023-04-08T11:35:40;10.00;99.90
25250;DHT22;13201;51.148;13.738;2023-04-08T11:38:07;10.00;99.90
25250;DHT22;13201;51.148;13.738;2023-04-08T11:40:32;9.80;99.90
25250;DHT22;13201;51.148;13.738;2023-04-08T11:42:58;9.90;99.90
25250;DHT22;13201;51.148;13.738;2023-04-08T11:45:24;9.80;99.90
25250;DHT22;13201;51.148;13.738;2023-04-08T11:47:50;9.70;99.90
25250;DHT22;13201;51.148;13.738;2023-04-08T11:50:23;9.60;99.90
25250;DHT22;13201;51.148;13.738;2023-04-08T11:52:54;9.40;99.90
25250;DHT22;13201;51.148;13.738;2023-04-08T11:55:25;9.50;99.90
25250;DHT22;13201;51.148;13.738;2023-04-08T11:57:52;9.60;99.90
25250;DHT22;13201;51.148;13.738;2023-04-08T12:00:18;9.60;99.90
25250;DHT22;13201;51.148;13.738;2023-04-08T12:02:45;9.50;99.90
25250;DHT22;13201;51.148;13.738;2023-04-08T12:05:12;9.40;99.90
25250;DHT22;13201;51.148;13.738;2023-04-08T12:07:38;9.40;99.90
25250;DHT22;13201;51.148;13.738;2023-04-08T12:10:04;9.20;99.90
25250;DHT22;13201;51.148;13.738;2023-04-08T12:12:30;9.30;99.90
25250;DHT22;13201;51.148;13.738;2023-04-08T12:14:56;9.10;99.90
25250;DHT22;13201;51.148;13.738;2023-04-08T12:17:22;9.20;99.90
25250;DHT22;13201;51.148;13.738;2023-04-08T12:19:47;9.20;99.90
25250;DHT22;13201;51.148;13.738;2023-04-08T12:22:13;9.40;99.90
25250;DHT22;13201;51.148;13.738;2023-04-08T12:24:39;9.50;99.90
25250;DHT22;13201;51.148;13.738;2023-04-08T12:27:04;9.60;99.90
25250;DHT22;13201;51.148;13.738;2023-04-08T12:29:31;9.70;99.90
25250;DHT22;13201;51.148;13.738;2023-04-08T12:31:56;9.60;99.90
25250;DHT22;13201;51.148;13.738;2023-04-08T12:34:22;9.40;99.90
25250;DHT22;13201;51.148;13.738;2023-04-08T12:36:49;9.30;99.90
25250;DHT22;13201;51.148;13.738;2023-04-08T12:39:14;9.40;99.90
25250;DHT22;13201;51.148;13.738;2023-04-08T12:41:40;9.60;99.90
25250;DHT22;13201;51.148;13.738;2023-04-08T12:44:06;9.60;99.90
25250;DHT22;13201;51.148;13.738;2023-04-08T12:46:32;9.50;99.90
25250;DHT22;13201;51.148;13.738;2023-04-08T12:48:58;9.20;99.90
25250;DHT22;13201;51.148;13.738;2023-04-08T12:51:23;9.20;99.90
25250;DHT22;13201;51.148;13.738;2023-04-08T12:53:53;9.10;99.90
25250;DHT22;13201;51.148;13.738;2023-04-08T12:56:19;9.10;99.90
25250;DHT22;13201;51.148;13.738;2023-04-08T12:58:45;8.90;99.90
25250;DHT22;13201;51.148;13.738;2023-04-08T13:01:11;8.90;99.90
25250;DHT22;13201;51.148;13.738;2023-04-08T13:03:37;9.00;99.90
25250;DHT22;13201;51.148;13.738;2023-04-08T13:06:03;9.10;99.90
25250;DHT22;13201;51.148;13.738;2023-04-08T13:08:28;8.70;99.90
25250;DHT22;13201;51.148;13.738;2023-04-08T13:10:54;8.70;99.90
25250;DHT22;13201;51.148;13.738;2023-04-08T13:13:20;8.40;99.90
25250;DHT22;13201;51.148;13.738;2023-04-08T13:15:45;8.70;99.90
25250;DHT22;13201;51.148;13.738;2023-04-08T13:18:12;8.60;99.90
25250;DHT22;13201;51.148;13.738;2023-04-08T13:20:38;8.90;99.90
25250;DHT22;13201;51.148;13.738;2023-04-08T13:23:03;9.10;99.90
25250;DHT22;13201;51.148;13.738;2023-04-08T13:25:29;9.10;99.90
25250;DHT22;13201;51.148;13.738;2023-04-08T13:27:55;9.30;99.90
25250;DHT22;13201;51.148;13.738;2023-04-08T13:30:20;9.40;99.90
25250;DHT22;13201;51.148;13.738;2023-04-08T13:32:46;9.50;99.90
25250;DHT22;13201;51.148;13.738;2023-04-08T13:35:12;9.70;99.90
25250;DHT22;13201;51.148;13.738;2023-04-08T13:37:37;9.50;99.90
25250;DHT22;13201;51.148;13.738;2023-04-08T13:40:04;9.60;99.90
25250;DHT22;13201;51.148;13.738;2023-04-08T13:42:30;10.00;99.90
25250;DHT22;13201;51.148;13.738;2023-04-08T13:44:57;10.00;99.90
25250;DHT22;13201;51.148;13.738;2023-04-08T13:47:23;10.20;99.90
25250;DHT22;13201;51.148;13.738;2023-04-08T13:49:48;10.50;99.90
25250;DHT22;13201;51.148;13.738;2023-04-08T13:52:14;10.60;99.90
25250;DHT22;13201;51.148;13.738;2023-04-08T13:54:40;10.50;99.90
25250;DHT22;13201;51.148;13.738;2023-04-08T13:57:06;10.40;99.90
25250;DHT22;13201;51.148;13.738;2023-04-08T13:59:31;10.30;99.90
25250;DHT22;13201;51.148;13.738;2023-04-08T14:01:57;10.40;99.90
25250;DHT22;13201;51.148;13.738;2023-04-08T14:04:23;10.30;99.90
25250;DHT22;13201;51.148;13.738;2023-04-08T14:06:49;10.00;99.90
25250;DHT22;13201;51.148;13.738;2023-04-08T14:09:19;10.00;99.90
25250;DHT22;13201;51.148;13.738;2023-04-08T14:11:45;10.00;99.90
25250;DHT22;13201;51.148;13.738;2023-04-08T14:14:11;9.90;99.90
25250;DHT22;13201;51.148;13.738;2023-04-08T14:16:37;9.70;99.90
25250;DHT22;13201;51.148;13.738;2023-04-08T14:19:03;9.30;99.90
25250;DHT22;13201;51.148;13.738;2023-04-08T14:21:30;9.50;99.90
25250;DHT22;13201;51.148;13.738;2023-04-08T14:23:56;9.60;99.90
25250;DHT22;13201;51.148;13.738;2023-04-08T14:26:22;9.80;99.90
25250;DHT22;13201;51.148;13.738;2023-04-08T14:28:48;9.70;99.90
25250;DHT22;13201;51.148;13.738;2023-04-08T14:31:14;9.60;99.90
25250;DHT22;13201;51.148;13.738;2023-04-08T14:33:40;9.80;99.90
25250;DHT22;13201;51.148;13.738;2023-04-08T14:36:07;9.60;99.90
25250;DHT22;13201;51.148;13.738;2023-04-08T14:38:33;9.60;99.90
25250;DHT22;13201;51.148;13.738;2023-04-08T14:40:58;9.40;99.90
25250;DHT22;13201;51.148;13.738;2023-04-08T14:43:24;9.30;99.90
25250;DHT22;13201;51.148;13.738;2023-04-08T14:45:50;9.20;99.90
25250;DHT22;13201;51.148;13.738;2023-04-08T14:48:18;9.10;99.90
25250;DHT22;13201;51.148;13.738;2023-04-08T14:50:44;8.90;99.90
25250;DHT22;13201;51.148;13.738;2023-04-08T14:53:10;8.90;99.90
25250;DHT22;13201;51.148;13.738;2023-04-08T14:55:36;9.00;99.90
25250;DHT22;13201;51.148;13.738;2023-04-08T14:58:03;8.90;99.90
25250;DHT22;13201;51.148;13.738;2023-04-08T15:00:28;8.90;99.90
25250;DHT22;13201;51.148;13.738;2023-04-08T15:02:54;8.90;99.90
25250;DHT22;13201;51.148;13.738;2023-04-08T15:05:20;8.90;99.90
25250;DHT22;13201;51.148;13.738;2023-04-08T15:07:47;9.00;99.90
25250;DHT22;13201;51.148;13.738;2023-04-08T15:10:13;9.10;99.90
25250;DHT22;13201;51.148;13.738;2023-04-08T15:12:38;9.20;99.90
25250;DHT22;13201;51.148;13.738;2023-04-08T15:15:04;9.10;99.90
25250;DHT22;13201;51.148;13.738;2023-04-08T15:17:30;9.10;99.90
25250;DHT22;13201;51.148;13.738;2023-04-08T15:19:56;9.00;99.90
25250;DHT22;13201;51.148;13.738;2023-04-08T15:22:23;9.20;99.90
25250;DHT22;13201;51.148;13.738;2023-04-08T15:24:48;8.90;99.90
25250;DHT22;13201;51.148;13.738;2023-04-08T15:27:14;9.00;99.90
25250;DHT22;13201;51.148;13.738;2023-04-08T15:29:40;9.00;99.90
25250;DHT22;13201;51.148;13.738;2023-04-08T15:32:06;9.00;99.90
25250;DHT22;13201;51.148;13.738;2023-04-08T15:34:32;9.00;99.90
25250;DHT22;13201;51.148;13.738;2023-04-08T15:36:58;9.00;99.90
25250;DHT22;13201;51.148;13.738;2023-04-08T15:39:24;9.10;99.90
25250;DHT22;13201;51.148;13.738;2023-04-08T15:41:50;9.30;99.90
25250;DHT22;13201;51.148;13.738;2023-04-08T15:44:16;9.20;99.90
25250;DHT22;13201;51.148;13.738;2023-04-08T15:46:42;9.20;99.90
25250;DHT22;13201;51.148;13.738;2023-04-08T15:49:07;9.00;99.90
25250;DHT22;13201;51.148;13.738;2023-04-08T15:51:33;8.80;99.90
25250;DHT22;13201;51.148;13.738;2023-04-08T15:53:59;9.10;99.90
25250;DHT22;13201;51.148;13.738;2023-04-08T15:56:25;9.20;99.90
25250;DHT22;13201;51.148;13.738;2023-04-08T15:58:54;9.10;99.90
25250;DHT22;13201;51.148;13.738;2023-04-08T16:01:20;9.00;99.90
25250;DHT22;13201;51.148;13.738;2023-04-08T16:03:46;8.80;99.90
25250;DHT22;13201;51.148;13.738;2023-04-08T16:06:12;9.00;99.90